sensor_id;sensor_type;location;lat;lon;timestamp;P1;durP1;ratioP1;P2;durP2;ratioP2
14817;SDS011;7500;57.698;11.986;2023-02-11T00:00:11;15.97;;;2.87;;
14817;SDS011;7500;57.698;11.986;2023-02-11T00:02:39;34.27;;;5.40;;
14817;SDS011;7500;57.698;11.986;2023-02-11T00:05:07;40.83;;;5.93;;
14817;SDS011;7500;57.698;11.986;2023-02-11T00:07:34;32.83;;;5.27;;
14817;SDS011;7500;57.698;11.986;2023-02-11T00:10:02;35.27;;;5.53;;
14817;SDS011;7500;57.698;11.986;2023-02-11T00:12:30;31.77;;;5.17;;
14817;SDS011;7500;57.698;11.986;2023-02-11T00:14:57;37.93;;;6.00;;
14817;SDS011;7500;57.698;11.986;2023-02-11T00:17:24;35.47;;;5.80;;
14817;SDS011;7500;57.698;11.986;2023-02-11T00:19:51;29.83;;;5.27;;
14817;SDS011;7500;57.698;11.986;2023-02-11T00:22:20;35.40;;;5.23;;
14817;SDS011;7500;57.698;11.986;2023-02-11T00:24:46;34.40;;;5.73;;
14817;SDS011;7500;57.698;11.986;2023-02-11T00:27:13;32.13;;;5.97;;
14817;SDS011;7500;57.698;11.986;2023-02-11T00:29:40;24.77;;;4.47;;
14817;SDS011;7500;57.698;11.986;2023-02-11T00:32:08;34.67;;;4.80;;
14817;SDS011;7500;57.698;11.986;2023-02-11T00:34:35;33.43;;;5.20;;
14817;SDS011;7500;57.698;11.986;2023-02-11T00:37:02;21.87;;;3.60;;
14817;SDS011;7500;57.698;11.986;2023-02-11T00:39:31;33.13;;;5.20;;
14817;SDS011;7500;57.698;11.986;2023-02-11T00:41:58;24.83;;;4.53;;
14817;SDS011;7500;57.698;11.986;2023-02-11T00:44:25;25.07;;;4.17;;
14817;SDS011;7500;57.698;11.986;2023-02-11T00:46:52;23.33;;;4.63;;
14817;SDS011;7500;57.698;11.986;2023-02-11T00:49:19;30.80;;;5.10;;
14817;SDS011;7500;57.698;11.986;2023-02-11T00:51:46;33.57;;;5.73;;
14817;SDS011;7500;57.698;11.986;2023-02-11T00:54:13;22.10;;;4.43;;
14817;SDS011;7500;57.698;11.986;2023-02-11T00:56:41;33.50;;;5.37;;
14817;SDS011;7500;57.698;11.986;2023-02-11T00:59:08;26.43;;;5.50;;
14817;SDS011;7500;57.698;11.986;2023-02-11T01:01:35;25.70;;;5.03;;
14817;SDS011;7500;57.698;11.986;2023-02-11T01:04:02;26.90;;;5.60;;
14817;SDS011;7500;57.698;11.986;2023-02-11T01:06:28;30.43;;;5.77;;
14817;SDS011;7500;57.698;11.986;2023-02-11T01:08:55;31.77;;;5.13;;
14817;SDS011;7500;57.698;11.986;2023-02-11T01:11:22;25.83;;;4.53;;
14817;SDS011;7500;57.698;11.986;2023-02-11T01:13:50;31.70;;;4.87;;
14817;SDS011;7500;57.698;11.986;2023-02-11T01:16:18;21.50;;;3.80;;
14817;SDS011;7500;57.698;11.986;2023-02-11T01:18:45;32.30;;;4.40;;
14817;SDS011;7500;57.698;11.986;2023-02-11T01:21:12;26.30;;;4.43;;
14817;SDS011;7500;57.698;11.986;2023-02-11T01:23:40;27.43;;;4.10;;
14817;SDS011;7500;57.698;11.986;2023-02-11T01:26:07;25.03;;;4.37;;
14817;SDS011;7500;57.698;11.986;2023-02-11T01:28:34;20.33;;;5.20;;
14817;SDS011;7500;57.698;11.986;2023-02-11T01:31:02;30.17;;;4.90;;
14817;SDS011;7500;57.698;11.986;2023-02-11T01:33:30;27.70;;;4.63;;
14817;SDS011;7500;57.698;11.986;2023-02-11T01:35:59;29.23;;;4.60;;
14817;SDS011;7500;57.698;11.986;2023-02-11T01:38:27;30.20;;;4.60;;
14817;SDS011;7500;57.698;11.986;2023-02-11T01:40:55;21.37;;;4.37;;
14817;SDS011;7500;57.698;11.986;2023-02-11T01:43:24;27.27;;;5.33;;
14817;SDS011;7500;57.698;11.986;2023-02-11T01:45:59;21.67;;;4.03;;
14817;SDS011;7500;57.698;11.986;2023-02-11T01:48:42;27.87;;;4.77;;
14817;SDS011;7500;57.698;11.986;2023-02-11T01:51:12;25.90;;;4.57;;
14817;SDS011;7500;57.698;11.986;2023-02-11T01:53:41;31.33;;;5.13;;
14817;SDS011;7500;57.698;11.986;2023-02-11T01:56:27;32.33;;;5.50;;
14817;SDS011;7500;57.698;11.986;2023-02-11T01:59:16;25.63;;;4.43;;
14817;SDS011;7500;57.698;11.986;2023-02-11T02:01:49;24.60;;;3.80;;
14817;SDS011;7500;57.698;11.986;2023-02-11T02:04:21;29.23;;;5.17;;
14817;SDS011;7500;57.698;11.986;2023-02-11T02:06:52;27.13;;;4.80;;
14817;SDS011;7500;57.698;11.986;2023-02-11T02:09:25;26.57;;;4.60;;
14817;SDS011;7500;57.698;11.986;2023-02-11T02:11:57;22.73;;;4.43;;
14817;SDS011;7500;57.698;11.986;2023-02-11T02:14:24;22.33;;;4.40;;
14817;SDS011;7500;57.698;11.986;2023-02-11T02:16:52;23.17;;;5.13;;
14817;SDS011;7500;57.698;11.986;2023-02-11T02:22:22;21.87;;;4.67;;
14817;SDS011;7500;57.698;11.986;2023-02-11T02:25:21;24.33;;;5.13;;
14817;SDS011;7500;57.698;11.986;2023-02-11T02:28:05;26.00;;;5.37;;
14817;SDS011;7500;57.698;11.986;2023-02-11T02:30:52;24.33;;;4.47;;
14817;SDS011;7500;57.698;11.986;2023-02-11T02:33:43;35.27;;;5.53;;
14817;SDS011;7500;57.698;11.986;2023-02-11T02:36:17;37.97;;;6.60;;
14817;SDS011;7500;57.698;11.986;2023-02-11T02:38:50;29.27;;;5.40;;
14817;SDS011;7500;57.698;11.986;2023-02-11T02:41:21;33.03;;;5.53;;
14817;SDS011;7500;57.698;11.986;2023-02-11T02:43:52;35.10;;;6.40;;
14817;SDS011;7500;57.698;11.986;2023-02-11T02:46:20;28.13;;;5.07;;
14817;SDS011;7500;57.698;11.986;2023-02-11T02:48:50;33.10;;;5.90;;
14817;SDS011;7500;57.698;11.986;2023-02-11T02:51:23;22.17;;;4.37;;
14817;SDS011;7500;57.698;11.986;2023-02-11T02:54:05;32.17;;;5.30;;
14817;SDS011;7500;57.698;11.986;2023-02-11T02:56:47;34.43;;;6.10;;
14817;SDS011;7500;57.698;11.986;2023-02-11T02:59:25;37.43;;;6.07;;
14817;SDS011;7500;57.698;11.986;2023-02-11T03:02:02;34.37;;;6.83;;
14817;SDS011;7500;57.698;11.986;2023-02-11T03:04:40;36.70;;;4.97;;
14817;SDS011;7500;57.698;11.986;2023-02-11T03:07:19;30.20;;;5.63;;
14817;SDS011;7500;57.698;11.986;2023-02-11T03:09:54;33.47;;;5.20;;
14817;SDS011;7500;57.698;11.986;2023-02-11T03:12:25;24.13;;;4.97;;
14817;SDS011;7500;57.698;11.986;2023-02-11T03:14:55;28.80;;;4.77;;
14817;SDS011;7500;57.698;11.986;2023-02-11T03:17:22;28.27;;;3.70;;
14817;SDS011;7500;57.698;11.986;2023-02-11T03:19:52;31.00;;;5.77;;
14817;SDS011;7500;57.698;11.986;2023-02-11T03:22:24;35.73;;;6.03;;
14817;SDS011;7500;57.698;11.986;2023-02-11T03:24:52;32.67;;;5.50;;
14817;SDS011;7500;57.698;11.986;2023-02-11T03:27:24;35.67;;;5.70;;
14817;SDS011;7500;57.698;11.986;2023-02-11T03:29:54;37.27;;;6.80;;
14817;SDS011;7500;57.698;11.986;2023-02-11T03:32:27;35.57;;;6.13;;
14817;SDS011;7500;57.698;11.986;2023-02-11T03:35:01;32.23;;;5.40;;
14817;SDS011;7500;57.698;11.986;2023-02-11T03:37:34;32.07;;;6.00;;
14817;SDS011;7500;57.698;11.986;2023-02-11T03:40:05;37.30;;;5.43;;
14817;SDS011;7500;57.698;11.986;2023-02-11T03:42:36;34.53;;;5.83;;
14817;SDS011;7500;57.698;11.986;2023-02-11T03:45:09;35.70;;;5.67;;
14817;SDS011;7500;57.698;11.986;2023-02-11T03:47:40;41.43;;;5.50;;
14817;SDS011;7500;57.698;11.986;2023-02-11T03:50:13;34.57;;;5.20;;
14817;SDS011;7500;57.698;11.986;2023-02-11T03:52:43;36.40;;;6.13;;
14817;SDS011;7500;57.698;11.986;2023-02-11T03:55:12;34.03;;;4.77;;
14817;SDS011;7500;57.698;11.986;2023-02-11T03:57:42;25.93;;;4.27;;
14817;SDS011;7500;57.698;11.986;2023-02-11T04:00:10;25.03;;;4.63;;
14817;SDS011;7500;57.698;11.986;2023-02-11T04:02:38;32.30;;;5.70;;
14817;SDS011;7500;57.698;11.986;2023-02-11T04:05:06;22.17;;;4.20;;
14817;SDS011;7500;57.698;11.986;2023-02-11T04:07:40;30.47;;;5.27;;
14817;SDS011;7500;57.698;11.986;2023-02-11T04:10:08;20.40;;;3.33;;
14817;SDS011;7500;57.698;11.986;2023-02-11T04:12:36;32.83;;;5.10;;
14817;SDS011;7500;57.698;11.986;2023-02-11T04:15:04;20.30;;;3.17;;
14817;SDS011;7500;57.698;11.986;2023-02-11T04:17:31;23.60;;;4.80;;
14817;SDS011;7500;57.698;11.986;2023-02-11T04:19:58;26.90;;;4.40;;
14817;SDS011;7500;57.698;11.986;2023-02-11T04:22:25;25.67;;;4.70;;
14817;SDS011;7500;57.698;11.986;2023-02-11T04:24:53;22.47;;;3.83;;
14817;SDS011;7500;57.698;11.986;2023-02-11T04:27:20;26.17;;;3.77;;
14817;SDS011;7500;57.698;11.986;2023-02-11T04:29:47;25.73;;;4.63;;
14817;SDS011;7500;57.698;11.986;2023-02-11T04:32:14;24.90;;;4.53;;
14817;SDS011;7500;57.698;11.986;2023-02-11T04:34:41;28.40;;;5.33;;
14817;SDS011;7500;57.698;11.986;2023-02-11T04:37:09;33.50;;;5.03;;
14817;SDS011;7500;57.698;11.986;2023-02-11T04:39:36;30.93;;;5.63;;
14817;SDS011;7500;57.698;11.986;2023-02-11T04:42:04;29.33;;;5.37;;
14817;SDS011;7500;57.698;11.986;2023-02-11T04:44:31;31.17;;;5.13;;
14817;SDS011;7500;57.698;11.986;2023-02-11T04:46:58;26.60;;;5.33;;
14817;SDS011;7500;57.698;11.986;2023-02-11T04:49:24;29.17;;;5.40;;
14817;SDS011;7500;57.698;11.986;2023-02-11T04:51:51;25.60;;;5.27;;
14817;SDS011;7500;57.698;11.986;2023-02-11T04:54:18;27.40;;;4.73;;
14817;SDS011;7500;57.698;11.986;2023-02-11T04:56:46;25.43;;;4.20;;
14817;SDS011;7500;57.698;11.986;2023-02-11T04:59:15;34.73;;;5.50;;
14817;SDS011;7500;57.698;11.986;2023-02-11T05:01:42;27.63;;;5.00;;
14817;SDS011;7500;57.698;11.986;2023-02-11T05:04:08;43.20;;;5.67;;
14817;SDS011;7500;57.698;11.986;2023-02-11T05:06:36;31.83;;;5.43;;
14817;SDS011;7500;57.698;11.986;2023-02-11T05:09:03;32.27;;;5.13;;
14817;SDS011;7500;57.698;11.986;2023-02-11T05:11:30;26.37;;;4.37;;
14817;SDS011;7500;57.698;11.986;2023-02-11T05:13:57;26.37;;;4.97;;
14817;SDS011;7500;57.698;11.986;2023-02-11T05:16:26;29.90;;;4.73;;
14817;SDS011;7500;57.698;11.986;2023-02-11T05:18:52;30.40;;;5.50;;
14817;SDS011;7500;57.698;11.986;2023-02-11T05:21:20;29.00;;;4.67;;
14817;SDS011;7500;57.698;11.986;2023-02-11T05:23:47;37.27;;;5.80;;
14817;SDS011;7500;57.698;11.986;2023-02-11T05:26:14;30.67;;;5.67;;
14817;SDS011;7500;57.698;11.986;2023-02-11T05:28:41;28.40;;;5.17;;
14817;SDS011;7500;57.698;11.986;2023-02-11T05:31:09;33.63;;;5.57;;
14817;SDS011;7500;57.698;11.986;2023-02-11T05:33:40;27.73;;;6.33;;
14817;SDS011;7500;57.698;11.986;2023-02-11T05:36:07;28.37;;;5.57;;
14817;SDS011;7500;57.698;11.986;2023-02-11T05:38:36;31.27;;;5.30;;
14817;SDS011;7500;57.698;11.986;2023-02-11T05:41:04;35.53;;;6.23;;
14817;SDS011;7500;57.698;11.986;2023-02-11T05:43:31;31.00;;;5.03;;
14817;SDS011;7500;57.698;11.986;2023-02-11T05:46:00;33.03;;;5.67;;
14817;SDS011;7500;57.698;11.986;2023-02-11T05:48:28;25.93;;;4.27;;
14817;SDS011;7500;57.698;11.986;2023-02-11T05:50:56;23.93;;;4.47;;
14817;SDS011;7500;57.698;11.986;2023-02-11T05:53:23;23.20;;;4.80;;
14817;SDS011;7500;57.698;11.986;2023-02-11T05:55:50;22.53;;;4.63;;
14817;SDS011;7500;57.698;11.986;2023-02-11T05:58:17;24.20;;;3.97;;
14817;SDS011;7500;57.698;11.986;2023-02-11T06:00:43;27.93;;;4.33;;
14817;SDS011;7500;57.698;11.986;2023-02-11T06:03:10;22.50;;;4.10;;
14817;SDS011;7500;57.698;11.986;2023-02-11T06:05:37;26.73;;;3.90;;
14817;SDS011;7500;57.698;11.986;2023-02-11T06:08:05;20.97;;;4.10;;
14817;SDS011;7500;57.698;11.986;2023-02-11T06:10:32;20.73;;;3.93;;
14817;SDS011;7500;57.698;11.986;2023-02-11T06:12:59;24.17;;;4.17;;
14817;SDS011;7500;57.698;11.986;2023-02-11T06:15:27;23.47;;;4.00;;
14817;SDS011;7500;57.698;11.986;2023-02-11T06:17:54;23.77;;;4.37;;
14817;SDS011;7500;57.698;11.986;2023-02-11T06:20:21;30.60;;;4.77;;
14817;SDS011;7500;57.698;11.986;2023-02-11T06:22:48;20.50;;;3.63;;
14817;SDS011;7500;57.698;11.986;2023-02-11T06:25:16;20.63;;;3.93;;
14817;SDS011;7500;57.698;11.986;2023-02-11T06:27:43;24.50;;;3.73;;
14817;SDS011;7500;57.698;11.986;2023-02-11T06:30:10;20.50;;;4.10;;
14817;SDS011;7500;57.698;11.986;2023-02-11T06:32:38;24.50;;;3.90;;
14817;SDS011;7500;57.698;11.986;2023-02-11T06:35:05;21.80;;;4.27;;
14817;SDS011;7500;57.698;11.986;2023-02-11T06:37:32;16.83;;;3.43;;
14817;SDS011;7500;57.698;11.986;2023-02-11T06:39:59;21.37;;;4.03;;
14817;SDS011;7500;57.698;11.986;2023-02-11T06:42:28;14.20;;;2.93;;
14817;SDS011;7500;57.698;11.986;2023-02-11T06:44:54;20.57;;;3.80;;
14817;SDS011;7500;57.698;11.986;2023-02-11T06:47:21;23.47;;;3.90;;
14817;SDS011;7500;57.698;11.986;2023-02-11T06:49:48;24.33;;;4.23;;
14817;SDS011;7500;57.698;11.986;2023-02-11T06:52:15;19.17;;;4.67;;
14817;SDS011;7500;57.698;11.986;2023-02-11T06:54:42;14.60;;;3.17;;
14817;SDS011;7500;57.698;11.986;2023-02-11T06:57:09;24.10;;;5.00;;
14817;SDS011;7500;57.698;11.986;2023-02-11T06:59:37;18.50;;;3.47;;
14817;SDS011;7500;57.698;11.986;2023-02-11T07:02:04;16.83;;;2.80;;
14817;SDS011;7500;57.698;11.986;2023-02-11T07:04:31;18.23;;;3.50;;
14817;SDS011;7500;57.698;11.986;2023-02-11T07:06:58;16.23;;;3.20;;
14817;SDS011;7500;57.698;11.986;2023-02-11T07:09:25;19.70;;;3.50;;
14817;SDS011;7500;57.698;11.986;2023-02-11T07:11:52;15.17;;;2.97;;
14817;SDS011;7500;57.698;11.986;2023-02-11T07:14:19;15.10;;;2.77;;
14817;SDS011;7500;57.698;11.986;2023-02-11T07:16:47;14.60;;;2.83;;
14817;SDS011;7500;57.698;11.986;2023-02-11T07:19:14;20.40;;;3.10;;
14817;SDS011;7500;57.698;11.986;2023-02-11T07:21:41;14.10;;;2.63;;
14817;SDS011;7500;57.698;11.986;2023-02-11T07:24:08;13.83;;;3.33;;
14817;SDS011;7500;57.698;11.986;2023-02-11T07:26:35;13.60;;;2.33;;
14817;SDS011;7500;57.698;11.986;2023-02-11T07:29:02;15.37;;;2.93;;
14817;SDS011;7500;57.698;11.986;2023-02-11T07:31:29;14.60;;;2.60;;
14817;SDS011;7500;57.698;11.986;2023-02-11T07:33:59;12.27;;;2.43;;
14817;SDS011;7500;57.698;11.986;2023-02-11T07:36:27;15.57;;;2.97;;
14817;SDS011;7500;57.698;11.986;2023-02-11T07:38:55;13.13;;;2.10;;
14817;SDS011;7500;57.698;11.986;2023-02-11T07:41:23;17.07;;;3.40;;
14817;SDS011;7500;57.698;11.986;2023-02-11T07:43:50;13.83;;;2.40;;
14817;SDS011;7500;57.698;11.986;2023-02-11T07:46:18;15.30;;;2.53;;
14817;SDS011;7500;57.698;11.986;2023-02-11T07:48:46;10.13;;;2.20;;
14817;SDS011;7500;57.698;11.986;2023-02-11T07:51:15;15.47;;;2.90;;
14817;SDS011;7500;57.698;11.986;2023-02-11T07:53:44;13.33;;;2.70;;
14817;SDS011;7500;57.698;11.986;2023-02-11T07:56:12;12.97;;;2.37;;
14817;SDS011;7500;57.698;11.986;2023-02-11T07:58:39;15.27;;;2.50;;
14817;SDS011;7500;57.698;11.986;2023-02-11T08:01:07;12.97;;;2.60;;
14817;SDS011;7500;57.698;11.986;2023-02-11T08:03:37;19.40;;;2.83;;
14817;SDS011;7500;57.698;11.986;2023-02-11T08:06:05;15.77;;;2.60;;
14817;SDS011;7500;57.698;11.986;2023-02-11T08:08:36;14.77;;;2.57;;
14817;SDS011;7500;57.698;11.986;2023-02-11T08:11:06;14.67;;;3.30;;
14817;SDS011;7500;57.698;11.986;2023-02-11T08:13:33;13.97;;;2.70;;
14817;SDS011;7500;57.698;11.986;2023-02-11T08:16:01;13.37;;;2.70;;
14817;SDS011;7500;57.698;11.986;2023-02-11T08:18:28;10.67;;;2.63;;
14817;SDS011;7500;57.698;11.986;2023-02-11T08:20:55;11.33;;;2.43;;
14817;SDS011;7500;57.698;11.986;2023-02-11T08:23:22;16.53;;;2.90;;
14817;SDS011;7500;57.698;11.986;2023-02-11T08:25:50;16.70;;;3.43;;
14817;SDS011;7500;57.698;11.986;2023-02-11T08:28:17;16.77;;;3.30;;
14817;SDS011;7500;57.698;11.986;2023-02-11T08:30:44;15.30;;;2.60;;
14817;SDS011;7500;57.698;11.986;2023-02-11T08:33:10;14.53;;;2.97;;
14817;SDS011;7500;57.698;11.986;2023-02-11T08:35:37;15.67;;;3.27;;
14817;SDS011;7500;57.698;11.986;2023-02-11T08:38:05;14.30;;;2.73;;
14817;SDS011;7500;57.698;11.986;2023-02-11T08:40:33;18.90;;;3.57;;
14817;SDS011;7500;57.698;11.986;2023-02-11T08:43:01;13.47;;;2.80;;
14817;SDS011;7500;57.698;11.986;2023-02-11T08:45:28;14.20;;;3.40;;
14817;SDS011;7500;57.698;11.986;2023-02-11T08:47:55;14.70;;;3.57;;
14817;SDS011;7500;57.698;11.986;2023-02-11T08:50:21;17.00;;;3.53;;
14817;SDS011;7500;57.698;11.986;2023-02-11T08:52:49;18.73;;;4.17;;
14817;SDS011;7500;57.698;11.986;2023-02-11T08:55:18;12.27;;;2.73;;
14817;SDS011;7500;57.698;11.986;2023-02-11T08:57:45;20.20;;;3.77;;
14817;SDS011;7500;57.698;11.986;2023-02-11T09:00:14;19.47;;;3.33;;
14817;SDS011;7500;57.698;11.986;2023-02-11T09:02:42;21.17;;;3.93;;
14817;SDS011;7500;57.698;11.986;2023-02-11T09:05:09;23.87;;;3.90;;
14817;SDS011;7500;57.698;11.986;2023-02-11T09:07:36;18.90;;;3.60;;
14817;SDS011;7500;57.698;11.986;2023-02-11T09:10:03;21.23;;;3.60;;
14817;SDS011;7500;57.698;11.986;2023-02-11T09:12:31;18.57;;;3.70;;
14817;SDS011;7500;57.698;11.986;2023-02-11T09:14:58;22.23;;;4.07;;
14817;SDS011;7500;57.698;11.986;2023-02-11T09:17:26;19.90;;;3.07;;
14817;SDS011;7500;57.698;11.986;2023-02-11T09:19:53;22.40;;;3.53;;
14817;SDS011;7500;57.698;11.986;2023-02-11T09:22:20;15.23;;;3.57;;
14817;SDS011;7500;57.698;11.986;2023-02-11T09:24:46;20.33;;;3.80;;
14817;SDS011;7500;57.698;11.986;2023-02-11T09:27:13;20.70;;;3.83;;
14817;SDS011;7500;57.698;11.986;2023-02-11T09:29:40;19.13;;;3.30;;
14817;SDS011;7500;57.698;11.986;2023-02-11T09:32:07;16.70;;;3.37;;
14817;SDS011;7500;57.698;11.986;2023-02-11T09:34:35;20.20;;;3.70;;
14817;SDS011;7500;57.698;11.986;2023-02-11T09:37:02;18.57;;;3.73;;
14817;SDS011;7500;57.698;11.986;2023-02-11T09:39:29;16.23;;;2.97;;
14817;SDS011;7500;57.698;11.986;2023-02-11T09:44:59;15.00;;;3.20;;
14817;SDS011;7500;57.698;11.986;2023-02-11T09:47:29;17.23;;;4.23;;
14817;SDS011;7500;57.698;11.986;2023-02-11T09:50:01;22.57;;;3.70;;
14817;SDS011;7500;57.698;11.986;2023-02-11T09:52:33;18.70;;;3.07;;
14817;SDS011;7500;57.698;11.986;2023-02-11T09:55:10;17.27;;;3.67;;
14817;SDS011;7500;57.698;11.986;2023-02-11T09:57:43;20.70;;;3.93;;
14817;SDS011;7500;57.698;11.986;2023-02-11T10:00:18;15.97;;;3.00;;
14817;SDS011;7500;57.698;11.986;2023-02-11T10:02:54;16.40;;;3.80;;
14817;SDS011;7500;57.698;11.986;2023-02-11T10:05:31;25.27;;;4.50;;
14817;SDS011;7500;57.698;11.986;2023-02-11T10:08:11;19.37;;;3.77;;
14817;SDS011;7500;57.698;11.986;2023-02-11T10:10:47;21.47;;;4.13;;
14817;SDS011;7500;57.698;11.986;2023-02-11T10:13:30;17.73;;;3.83;;
14817;SDS011;7500;57.698;11.986;2023-02-11T10:16:07;20.97;;;4.07;;
14817;SDS011;7500;57.698;11.986;2023-02-11T10:18:52;20.23;;;4.00;;
14817;SDS011;7500;57.698;11.986;2023-02-11T10:21:38;19.17;;;3.77;;
14817;SDS011;7500;57.698;11.986;2023-02-11T10:24:12;16.60;;;4.10;;
14817;SDS011;7500;57.698;11.986;2023-02-11T10:26:41;15.43;;;3.57;;
14817;SDS011;7500;57.698;11.986;2023-02-11T10:29:15;21.40;;;3.97;;
14817;SDS011;7500;57.698;11.986;2023-02-11T10:31:50;19.43;;;3.70;;
14817;SDS011;7500;57.698;11.986;2023-02-11T10:34:18;17.67;;;3.87;;
14817;SDS011;7500;57.698;11.986;2023-02-11T10:36:46;22.20;;;3.57;;
14817;SDS011;7500;57.698;11.986;2023-02-11T10:39:14;20.03;;;2.93;;
14817;SDS011;7500;57.698;11.986;2023-02-11T10:41:44;16.37;;;3.77;;
14817;SDS011;7500;57.698;11.986;2023-02-11T10:44:22;16.40;;;3.27;;
14817;SDS011;7500;57.698;11.986;2023-02-11T10:46:52;18.13;;;3.73;;
14817;SDS011;7500;57.698;11.986;2023-02-11T10:49:34;18.70;;;3.70;;
14817;SDS011;7500;57.698;11.986;2023-02-11T10:54:58;18.67;;;3.57;;
14817;SDS011;7500;57.698;11.986;2023-02-11T10:57:29;21.87;;;4.67;;
14817;SDS011;7500;57.698;11.986;2023-02-11T11:00:04;27.50;;;7.23;;
14817;SDS011;7500;57.698;11.986;2023-02-11T11:02:50;16.93;;;3.57;;
14817;SDS011;7500;57.698;11.986;2023-02-11T11:05:21;20.93;;;3.20;;
14817;SDS011;7500;57.698;11.986;2023-02-11T11:07:55;24.87;;;4.07;;
14817;SDS011;7500;57.698;11.986;2023-02-11T11:10:28;18.60;;;3.50;;
14817;SDS011;7500;57.698;11.986;2023-02-11T11:13:01;17.30;;;3.77;;
14817;SDS011;7500;57.698;11.986;2023-02-11T11:15:29;19.20;;;4.23;;
14817;SDS011;7500;57.698;11.986;2023-02-11T11:18:11;19.00;;;4.30;;
14817;SDS011;7500;57.698;11.986;2023-02-11T11:20:41;23.57;;;4.00;;
14817;SDS011;7500;57.698;11.986;2023-02-11T11:23:21;25.43;;;4.93;;
14817;SDS011;7500;57.698;11.986;2023-02-11T11:25:57;13.33;;;3.50;;
14817;SDS011;7500;57.698;11.986;2023-02-11T11:28:28;16.43;;;3.57;;
14817;SDS011;7500;57.698;11.986;2023-02-11T11:31:00;17.40;;;3.90;;
14817;SDS011;7500;57.698;11.986;2023-02-11T11:33:28;20.07;;;5.43;;
14817;SDS011;7500;57.698;11.986;2023-02-11T11:36:00;18.33;;;4.10;;
14817;SDS011;7500;57.698;11.986;2023-02-11T11:38:31;20.60;;;4.80;;
14817;SDS011;7500;57.698;11.986;2023-02-11T11:41:17;18.57;;;4.20;;
14817;SDS011;7500;57.698;11.986;2023-02-11T11:46:50;17.90;;;4.50;;
14817;SDS011;7500;57.698;11.986;2023-02-11T11:49:31;18.53;;;4.43;;
14817;SDS011;7500;57.698;11.986;2023-02-11T11:52:05;17.60;;;4.70;;
14817;SDS011;7500;57.698;11.986;2023-02-11T11:54:42;17.37;;;4.73;;
14817;SDS011;7500;57.698;11.986;2023-02-11T11:57:14;19.40;;;4.77;;
14817;SDS011;7500;57.698;11.986;2023-02-11T11:59:44;16.60;;;3.60;;
14817;SDS011;7500;57.698;11.986;2023-02-11T12:02:17;17.17;;;3.53;;
14817;SDS011;7500;57.698;11.986;2023-02-11T12:05:02;22.73;;;3.83;;
14817;SDS011;7500;57.698;11.986;2023-02-11T12:07:40;22.40;;;4.70;;
14817;SDS011;7500;57.698;11.986;2023-02-11T12:13:21;18.50;;;3.70;;
14817;SDS011;7500;57.698;11.986;2023-02-11T12:16:01;17.97;;;3.90;;
14817;SDS011;7500;57.698;11.986;2023-02-11T12:18:48;22.00;;;4.47;;
14817;SDS011;7500;57.698;11.986;2023-02-11T12:21:39;21.60;;;5.20;;
14817;SDS011;7500;57.698;11.986;2023-02-11T12:24:21;21.60;;;4.37;;
14817;SDS011;7500;57.698;11.986;2023-02-11T12:27:00;24.97;;;5.23;;
14817;SDS011;7500;57.698;11.986;2023-02-11T12:29:36;17.53;;;4.97;;
14817;SDS011;7500;57.698;11.986;2023-02-11T12:32:16;17.63;;;4.80;;
14817;SDS011;7500;57.698;11.986;2023-02-11T12:38:07;19.93;;;4.30;;
14817;SDS011;7500;57.698;11.986;2023-02-11T12:40:50;20.13;;;4.80;;
14817;SDS011;7500;57.698;11.986;2023-02-11T12:43:29;23.67;;;5.90;;
14817;SDS011;7500;57.698;11.986;2023-02-11T12:46:03;22.13;;;5.80;;
14817;SDS011;7500;57.698;11.986;2023-02-11T12:48:53;26.07;;;4.53;;
14817;SDS011;7500;57.698;11.986;2023-02-11T12:51:35;21.30;;;4.50;;
14817;SDS011;7500;57.698;11.986;2023-02-11T12:54:16;22.13;;;4.03;;
14817;SDS011;7500;57.698;11.986;2023-02-11T12:56:50;23.50;;;5.93;;
14817;SDS011;7500;57.698;11.986;2023-02-11T12:59:30;26.97;;;6.23;;
14817;SDS011;7500;57.698;11.986;2023-02-11T13:02:08;22.57;;;5.37;;
14817;SDS011;7500;57.698;11.986;2023-02-11T13:04:45;22.60;;;6.97;;
14817;SDS011;7500;57.698;11.986;2023-02-11T13:07:16;20.40;;;5.20;;
14817;SDS011;7500;57.698;11.986;2023-02-11T13:09:50;20.03;;;5.70;;
14817;SDS011;7500;57.698;11.986;2023-02-11T13:12:21;28.93;;;7.07;;
14817;SDS011;7500;57.698;11.986;2023-02-11T13:15:15;19.93;;;5.70;;
14817;SDS011;7500;57.698;11.986;2023-02-11T13:17:43;29.97;;;5.60;;
14817;SDS011;7500;57.698;11.986;2023-02-11T13:20:20;22.87;;;5.00;;
14817;SDS011;7500;57.698;11.986;2023-02-11T13:22:55;20.43;;;5.10;;
14817;SDS011;7500;57.698;11.986;2023-02-11T13:25:28;25.90;;;5.27;;
14817;SDS011;7500;57.698;11.986;2023-02-11T13:28:03;18.93;;;4.10;;
14817;SDS011;7500;57.698;11.986;2023-02-11T13:30:40;18.93;;;3.93;;
14817;SDS011;7500;57.698;11.986;2023-02-11T13:33:18;19.30;;;4.40;;
14817;SDS011;7500;57.698;11.986;2023-02-11T13:36:18;19.33;;;3.97;;
14817;SDS011;7500;57.698;11.986;2023-02-11T13:38:50;20.07;;;4.90;;
14817;SDS011;7500;57.698;11.986;2023-02-11T13:41:27;20.00;;;5.00;;
14817;SDS011;7500;57.698;11.986;2023-02-11T13:43:56;23.23;;;5.27;;
14817;SDS011;7500;57.698;11.986;2023-02-11T13:46:27;16.20;;;3.73;;
14817;SDS011;7500;57.698;11.986;2023-02-11T13:48:56;18.73;;;4.13;;
14817;SDS011;7500;57.698;11.986;2023-02-11T13:51:33;24.90;;;6.37;;
14817;SDS011;7500;57.698;11.986;2023-02-11T13:54:02;22.83;;;5.30;;
14817;SDS011;7500;57.698;11.986;2023-02-11T13:56:31;16.13;;;3.80;;
14817;SDS011;7500;57.698;11.986;2023-02-11T13:59:00;27.17;;;5.03;;
14817;SDS011;7500;57.698;11.986;2023-02-11T14:01:39;21.00;;;4.23;;
14817;SDS011;7500;57.698;11.986;2023-02-11T14:04:19;18.57;;;4.07;;
14817;SDS011;7500;57.698;11.986;2023-02-11T14:13:18;18.40;;;4.50;;
14817;SDS011;7500;57.698;11.986;2023-02-11T14:16:02;20.43;;;4.80;;
14817;SDS011;7500;57.698;11.986;2023-02-11T14:21:32;24.77;;;4.83;;
14817;SDS011;7500;57.698;11.986;2023-02-11T14:27:03;21.33;;;4.83;;
14817;SDS011;7500;57.698;11.986;2023-02-11T14:29:35;23.93;;;5.00;;
14817;SDS011;7500;57.698;11.986;2023-02-11T14:32:08;21.50;;;4.67;;
14817;SDS011;7500;57.698;11.986;2023-02-11T14:34:48;25.87;;;5.43;;
14817;SDS011;7500;57.698;11.986;2023-02-11T14:37:25;30.00;;;7.10;;
14817;SDS011;7500;57.698;11.986;2023-02-11T14:40:03;32.70;;;9.60;;
14817;SDS011;7500;57.698;11.986;2023-02-11T14:42:41;37.70;;;11.13;;
14817;SDS011;7500;57.698;11.986;2023-02-11T14:45:09;29.50;;;6.73;;
14817;SDS011;7500;57.698;11.986;2023-02-11T14:47:42;25.37;;;4.97;;
14817;SDS011;7500;57.698;11.986;2023-02-11T14:50:16;21.33;;;4.83;;
14817;SDS011;7500;57.698;11.986;2023-02-11T14:52:47;21.77;;;5.47;;
14817;SDS011;7500;57.698;11.986;2023-02-11T14:55:17;23.70;;;5.57;;
14817;SDS011;7500;57.698;11.986;2023-02-11T14:58:04;24.23;;;4.77;;
14817;SDS011;7500;57.698;11.986;2023-02-11T15:00:32;26.13;;;5.60;;
14817;SDS011;7500;57.698;11.986;2023-02-11T15:02:59;26.87;;;6.37;;
14817;SDS011;7500;57.698;11.986;2023-02-11T15:05:27;23.43;;;5.07;;
14817;SDS011;7500;57.698;11.986;2023-02-11T15:07:55;24.50;;;5.53;;
14817;SDS011;7500;57.698;11.986;2023-02-11T15:10:27;25.17;;;5.80;;
14817;SDS011;7500;57.698;11.986;2023-02-11T15:12:57;29.47;;;6.80;;
14817;SDS011;7500;57.698;11.986;2023-02-11T15:15:25;26.00;;;6.20;;
14817;SDS011;7500;57.698;11.986;2023-02-11T15:17:53;25.53;;;5.13;;
14817;SDS011;7500;57.698;11.986;2023-02-11T15:20:24;26.63;;;6.20;;
14817;SDS011;7500;57.698;11.986;2023-02-11T15:22:55;22.23;;;5.27;;
14817;SDS011;7500;57.698;11.986;2023-02-11T15:25:25;29.60;;;5.77;;